Time;durP1;ratioP1;P1;durP2;ratioP2;P2;SDS_P1;SDS_P2;PMS_P1;PMS_P2;Temp;Humidity;BMP_temperature;BMP_pressure;BME280_temperature;BME280_humidity;BME280_pressure;Samples;Min_cycle;Max_cycle;Signal;HPM_P1;HPM_P2
2021/09/12 00:00:53;;;;;;;;;;;;;;;25.31;nan;100792.38;5051657;28;19924;-45
2021/09/12 00:03:18;;;;;;;;;;;;;;;25.28;nan;100794.38;5051642;28;19921;-46
2021/09/12 00:05:43;;;;;;;;;;;;;;;25.29;nan;100803.41;5051453;28;19913;-47
2021/09/12 00:08:09;;;;;;;;;;;;;;;25.29;nan;100796.06;5051610;28;20405;-47
2021/09/12 00:10:34;;;;;;;;;;;;;;;25.29;nan;100796.06;5051524;28;20007;-47
2021/09/12 00:12:59;;;;;;;;;;;;;;;25.28;nan;100791.66;5051450;28;19912;-45
2021/09/12 00:15:25;;;;;;;;;;;;;;;25.27;nan;100789.09;5051567;28;19917;-45
2021/09/12 00:17:51;;;;;;;;;;;;;;;25.28;nan;100790.81;5052042;28;19944;-44
2021/09/12 00:20:16;;;;;;;;;;;;;;;25.27;nan;100789.97;5051399;28;20011;-45
2021/09/12 00:22:41;;;;;;;;;;;;;;;25.27;nan;100789.97;5051562;28;19943;-46
2021/09/12 00:25:08;;;;;;;;;;;;;;;25.26;nan;100795.53;5051399;28;20008;-44
2021/09/12 00:27:33;;;;;;;;;;;;;;;25.26;nan;100790.97;5051341;28;19913;-43
2021/09/12 00:29:58;;;;;;;;;;;;;;;25.25;nan;100789.25;5053487;28;19959;-47
2021/09/12 00:32:24;;;;;;;;;;;;;;;25.26;nan;100780.09;5055414;28;20410;-45
2021/09/12 00:34:50;;;;;;;;;;;;;;;25.25;nan;100775.63;5055717;28;19919;-46
2021/09/12 00:37:16;;;;;;;;;;;;;;;25.25;nan;100772.06;5037553;28;19913;-44
2021/09/12 00:39:41;;;;;;;;;;;;;;;25.24;nan;100765.78;5055457;28;20306;-46
2021/09/12 00:42:06;;;;;;;;;;;;;;;25.24;nan;100760.34;5055416;28;20428;-45
2021/09/12 00:44:32;;;;;;;;;;;;;;;25.23;nan;100765.94;5055392;28;19919;-46
2021/09/12 00:47:06;;;;;;;;;;;;;;;25.23;nan;100755.06;5055265;28;19923;-48
2021/09/12 00:49:31;;;;;;;;;;;;;;;25.23;nan;100752.34;5055227;28;20302;-45
2021/09/12 00:51:56;;;;;;;;;;;;;;;25.22;nan;100765.09;5055196;28;20141;-47
2021/09/12 00:54:22;;;;;;;;;;;;;;;25.20;nan;100753.50;5055159;28;19913;-47
2021/09/12 00:56:48;;;;;;;;;;;;;;;25.21;nan;100754.34;5055059;28;19916;-44
2021/09/12 00:59:14;;;;;;;;;;;;;;;25.21;nan;100749.75;5055026;28;19917;-44
2021/09/12 01:01:40;;;;;;;;;;;;;;;25.21;nan;100749.75;5054892;28;19935;-46
2021/09/12 01:04:06;;;;;;;;;;;;;;;25.20;nan;100747.22;5054979;28;19920;-49
2021/09/12 01:06:31;;;;;;;;;;;;;;;25.21;nan;100746.19;5054863;28;19913;-46
2021/09/12 01:08:57;;;;;;;;;;;;;;;25.20;nan;100736.31;5054964;28;19916;-47
2021/09/12 01:11:22;;;;;;;;;;;;;;;;;;5054649;28;19917;-46
2021/09/12 01:13:47;;;;;;;;;;;;;;;25.19;nan;100740.06;5036930;28;19920;-45
2021/09/12 01:16:16;;;;;;;;;;;;;;;25.19;nan;100743.63;5054694;28;19969;-47
2021/09/12 01:18:43;;;;;;;;;;;;;;;25.17;nan;100721.16;5054811;28;19944;-46
2021/09/12 01:21:09;;;;;;;;;;;;;;;;;;5054649;28;19917;-45
2021/09/12 01:23:34;;;;;;;;;;;;;;;25.17;nan;100732.03;5036412;28;19927;-46
2021/09/12 01:26:00;;;;;;;;;;;;;;;25.18;nan;100741.06;5036785;28;19913;-43
2021/09/12 01:28:25;;;;;;;;;;;;;;;25.17;nan;100732.03;5054525;28;19936;-44
2021/09/12 01:30:50;;;;;;;;;;;;;;;25.17;nan;100729.31;5054674;28;19922;-43
2021/09/12 01:33:15;;;;;;;;;;;;;;;25.16;nan;100735.78;5054358;28;20001;-47
2021/09/12 01:35:41;;;;;;;;;;;;;;;25.17;nan;100726.59;5054478;28;20004;-45
2021/09/12 01:38:06;;;;;;;;;;;;;;;25.17;nan;100744.78;5054372;28;20280;-48
2021/09/12 01:40:31;;;;;;;;;;;;;;;25.17;nan;100740.19;5053418;28;19963;-48
2021/09/12 01:43:00;;;;;;;;;;;;;;;25.15;nan;100736.78;5053769;28;19917;-46
2021/09/12 01:45:25;;;;;;;;;;;;;;;25.16;nan;100738.50;5054396;28;19917;-47
2021/09/12 01:47:50;;;;;;;;;;;;;;;25.15;nan;100739.50;5036277;28;20387;-46
2021/09/12 01:50:16;;;;;;;;;;;;;;;25.15;nan;100739.50;5054386;28;19955;-46
2021/09/12 01:52:42;;;;;;;;;;;;;;;25.14;nan;100747.81;5054033;28;19913;-46
2021/09/12 01:55:07;;;;;;;;;;;;;;;25.14;nan;100740.50;5036242;28;20306;-47
2021/09/12 01:57:32;;;;;;;;;;;;;;;25.14;nan;100736.94;5053857;28;20298;-48
2021/09/12 01:59:58;;;;;;;;;;;;;;;25.14;nan;100734.22;5053959;28;20066;-46
2021/09/12 02:02:23;;;;;;;;;;;;;;;25.14;nan;100735.06;5053793;28;19913;-46
2021/09/12 02:04:48;;;;;;;;;;;;;;;25.12;nan;100733.53;5053988;28;19913;-45
2021/09/12 02:07:14;;;;;;;;;;;;;;;25.12;nan;100723.50;5053805;28;19967;-46
2021/09/12 02:09:39;;;;;;;;;;;;;;;25.12;nan;100728.94;5053722;28;19912;-45
2021/09/12 02:12:04;;;;;;;;;;;;;;;25.12;nan;100728.94;5053679;28;19938;-45
2021/09/12 02:14:30;;;;;;;;;;;;;;;25.11;nan;100743.56;5053623;28;20007;-45
2021/09/12 02:16:55;;;;;;;;;;;;;;;25.12;nan;100730.81;5036077;28;20402;-46
2021/09/12 02:19:20;;;;;;;;;;;;;;;25.11;nan;100735.41;5053478;28;19923;-44
2021/09/12 02:21:46;;;;;;;;;;;;;;;25.11;nan;100737.25;5035613;28;19952;-45
2021/09/12 02:24:11;;;;;;;;;;;;;;;25.09;nan;100745.53;5053347;28;19920;-45
2021/09/12 02:26:36;;;;;;;;;;;;;;;25.10;nan;100730.94;5035673;28;19943;-43
2021/09/12 02:29:02;;;;;;;;;;;;;;;25.08;nan;100727.50;5053063;28;19940;-47
2021/09/12 02:31:27;;;;;;;;;;;;;;;25.09;nan;100729.22;5052404;28;20302;-45
2021/09/12 02:33:52;;;;;;;;;;;;;;;25.07;nan;100724.94;5052776;28;19952;-46
2021/09/12 02:36:18;;;;;;;;;;;;;;;25.09;nan;100731.09;5053443;28;19936;-47
2021/09/12 02:38:43;;;;;;;;;;;;;;;25.09;nan;100728.38;5053236;28;20299;-44
2021/09/12 02:41:08;;;;;;;;;;;;;;;25.08;nan;100732.94;5053164;28;19962;-46
2021/09/12 02:43:34;;;;;;;;;;;;;;;25.07;nan;100728.53;5053109;28;19913;-46
2021/09/12 02:45:59;;;;;;;;;;;;;;;25.07;nan;100720.38;5053220;28;20387;-46
2021/09/12 02:48:24;;;;;;;;;;;;;;;25.07;nan;100716.78;5053019;28;19960;-45
2021/09/12 02:50:50;;;;;;;;;;;;;;;25.07;nan;100723.09;5053250;28;19913;-46
2021/09/12 02:53:15;;;;;;;;;;;;;;;25.06;nan;100721.34;5052370;28;20371;-44
2021/09/12 02:55:40;;;;;;;;;;;;;;;25.06;nan;100726.78;5053038;28;19968;-46
2021/09/12 02:58:06;;;;;;;;;;;;;;;25.06;nan;100724.06;5052825;28;19920;-47
2021/09/12 03:00:31;;;;;;;;;;;;;;;25.06;nan;100726.78;5052821;28;19917;-45
2021/09/12 03:02:56;;;;;;;;;;;;;;;25.03;nan;100724.38;5034924;28;19920;-46
2021/09/12 03:05:22;;;;;;;;;;;;;;;25.04;nan;100717.97;5052668;28;20413;-44
2021/09/12 03:07:47;;;;;;;;;;;;;;;25.04;nan;100712.53;5052842;28;19933;-46
2021/09/12 03:10:12;;;;;;;;;;;;;;;25.04;nan;100720.69;5052675;28;19913;-47
2021/09/12 03:12:38;;;;;;;;;;;;;;;25.02;nan;100723.53;5034616;28;19916;-44
2021/09/12 03:15:03;;;;;;;;;;;;;;;25.03;nan;100721.66;5052594;28;19916;-44
2021/09/12 03:17:29;;;;;;;;;;;;;;;25.03;nan;100724.38;5034854;28;19913;-46
2021/09/12 03:19:54;;;;;;;;;;;;;;;25.00;nan;100727.44;5052468;28;20290;-44
2021/09/12 03:22:19;;;;;;;;;;;;;;;;;;5052508;28;19959;-44
2021/09/12 03:24:44;;;;;;;;;;;;;;;;;;5052677;28;20334;-45
2021/09/12 03:27:10;;;;;;;;;;;;;;;25.01;nan;100730.00;5052364;28;20007;-46
2021/09/12 03:29:35;;;;;;;;;;;;;;;25.01;nan;100732.72;5052326;28;19913;-46
2021/09/12 03:32:00;;;;;;;;;;;;;;;25.01;nan;100730.00;5052316;28;19913;-46
2021/09/12 03:34:26;;;;;;;;;;;;;;;25.01;nan;100742.72;5052144;28;19960;-45
2021/09/12 03:36:51;;;;;;;;;;;;;;;25.01;nan;100740.00;5052298;28;19919;-46
2021/09/12 03:39:17;;;;;;;;;;;;;;;25.00;nan;100735.59;5051970;28;19990;-46
2021/09/12 03:41:42;;;;;;;;;;;;;;;25.01;nan;100720.97;5052183;28;19913;-45
2021/09/12 03:44:07;;;;;;;;;;;;;;;24.99;nan;100729.31;5051916;28;20376;-48
2021/09/12 03:46:33;;;;;;;;;;;;;;;25.00;nan;100730.16;5052568;28;19905;-45
2021/09/12 03:48:58;;;;;;;;;;;;;;;24.99;nan;100726.59;5034134;28;19920;-46
2021/09/12 03:51:23;;;;;;;;;;;;;;;24.98;nan;100727.56;5034306;28;20019;-46
2021/09/12 03:53:55;;;;;;;;;;;;;;;24.96;nan;100717.88;5052076;28;19913;-45
2021/09/12 03:56:21;;;;;;;;;;;;;;;24.96;nan;100723.31;5052001;28;19917;-46
2021/09/12 03:58:46;;;;;;;;;;;;;;;24.97;nan;100719.59;5034174;28;19912;-45
2021/09/12 04:01:11;;;;;;;;;;;;;;;24.97;nan;100714.16;5051800;28;19956;-46
2021/09/12 04:03:36;;;;;;;;;;;;;;;24.96;nan;100724.16;5051406;28;20339;-48
2021/09/12 04:06:02;;;;;;;;;;;;;;;24.97;nan;100722.31;5051714;28;19913;-46
2021/09/12 04:08:27;;;;;;;;;;;;;;;24.96;nan;100718.72;5033962;28;19917;-45
2021/09/12 04:10:52;;;;;;;;;;;;;;;24.95;nan;100716.16;5034153;28;19948;-46
2021/09/12 04:13:18;;;;;;;;;;;;;;;;;;5051762;28;19921;-44
2021/09/12 04:15:43;;;;;;;;;;;;;;;24.94;nan;100709.00;5051797;28;19919;-47
2021/09/12 04:18:08;;;;;;;;;;;;;;;24.94;nan;100706.28;5051970;28;19917;-43
2021/09/12 04:20:34;;;;;;;;;;;;;;;24.95;nan;100724.31;5051460;28;20011;-44
2021/09/12 04:22:59;;;;;;;;;;;;;;;24.94;nan;100719.88;5051353;28;20343;-45
2021/09/12 04:25:24;;;;;;;;;;;;;;;24.93;nan;100724.47;5033624;28;19912;-48
2021/09/12 04:27:49;;;;;;;;;;;;;;;24.94;nan;100722.59;5051496;28;20493;-44
2021/09/12 04:30:15;;;;;;;;;;;;;;;24.93;nan;100723.63;5051618;28;19912;-43
2021/09/12 04:32:40;;;;;;;;;;;;;;;24.91;nan;100717.47;5051410;28;19924;-44
2021/09/12 04:35:06;;;;;;;;;;;;;;;24.92;nan;100721.91;5051769;28;19920;-44
2021/09/12 04:37:31;;;;;;;;;;;;;;;24.91;nan;100712.88;5033555;28;19916;-43
2021/09/12 04:39:57;;;;;;;;;;;;;;;24.92;nan;100727.34;5033355;28;19923;-43
2021/09/12 04:42:22;;;;;;;;;;;;;;;24.91;nan;100720.19;5051319;28;20100;-44
2021/09/12 04:44:48;;;;;;;;;;;;;;;24.92;nan;100724.63;5051325;28;20405;-44
2021/09/12 04:47:13;;;;;;;;;;;;;;;24.91;nan;100725.63;5051338;28;19919;-45
2021/09/12 04:49:38;;;;;;;;;;;;;;;24.90;nan;100729.38;5051368;28;20129;-45
2021/09/12 04:52:04;;;;;;;;;;;;;;;24.89;nan;100733.94;5051139;28;19916;-43
2021/09/12 04:54:29;;;;;;;;;;;;;;;24.90;nan;100742.97;5051216;28;19967;-43
2021/09/12 04:56:54;;;;;;;;;;;;;;;24.89;nan;100728.50;5051137;28;19932;-44
2021/09/12 04:59:20;;;;;;;;;;;;;;;24.89;nan;100738.53;5051339;28;20016;-45
2021/09/12 05:01:45;;;;;;;;;;;;;;;24.88;nan;100736.81;5051079;28;19913;-43
2021/09/12 05:04:11;;;;;;;;;;;;;;;24.86;nan;100738.84;5051053;28;19936;-45
2021/09/12 05:06:36;;;;;;;;;;;;;;;24.88;nan;100736.81;5051046;28;19935;-45
2021/09/12 05:09:01;;;;;;;;;;;;;;;24.87;nan;100741.38;5051161;28;20289;-44
2021/09/12 05:11:27;;;;;;;;;;;;;;;24.86;nan;100739.69;5050958;28;19913;-44
2021/09/12 05:13:52;;;;;;;;;;;;;;;24.86;nan;100745.13;5051042;28;19920;-48
2021/09/12 05:16:17;;;;;;;;;;;;;;;24.87;nan;100740.53;5053379;28;20371;-44
2021/09/12 05:18:43;;;;;;;;;;;;;;;24.86;nan;100747.84;5054837;28;20383;-45
2021/09/12 05:21:08;;;;;;;;;;;;;;;24.86;nan;100738.84;5054477;28;20015;-44
2021/09/12 05:23:33;;;;;;;;;;;;;;;24.85;nan;100742.56;5054485;28;19952;-45
2021/09/12 05:25:59;;;;;;;;;;;;;;;24.85;nan;100742.56;5054514;28;20299;-45
2021/09/12 05:28:24;;;;;;;;;;;;;;;24.85;nan;100742.56;5036865;28;20011;-43
2021/09/12 05:30:49;;;;;;;;;;;;;;;24.83;nan;100740.00;5054492;28;19917;-44
2021/09/12 05:33:15;;;;;;;;;;;;;;;24.83;nan;100744.56;5054460;28;19948;-43
2021/09/12 05:35:40;;;;;;;;;;;;;;;24.83;nan;100734.56;5054544;28;20383;-48
2021/09/12 05:38:06;;;;;;;;;;;;;;;24.83;nan;100744.56;5054385;28;19928;-45
2021/09/12 05:40:32;;;;;;;;;;;;;;;24.82;nan;100738.28;5036370;28;19924;-45
2021/09/12 05:42:57;;;;;;;;;;;;;;;24.83;nan;100741.84;5054168;28;19959;-45
2021/09/12 05:45:22;;;;;;;;;;;;;;;24.81;nan;100739.31;5054522;28;19912;-49
2021/09/12 05:47:48;;;;;;;;;;;;;;;24.80;nan;100737.56;5054237;28;19916;-45
2021/09/12 05:50:13;;;;;;;;;;;;;;;24.81;nan;100742.03;5054752;28;19913;-46
2021/09/12 05:52:39;;;;;;;;;;;;;;;24.80;nan;100746.59;5054049;28;19920;-49
2021/09/12 05:55:04;;;;;;;;;;;;;;;24.80;nan;100741.16;5036560;28;19913;-45
2021/09/12 05:57:30;;;;;;;;;;;;;;;24.78;nan;100737.72;5036029;28;20418;-45
2021/09/12 05:59:55;;;;;;;;;;;;;;;24.79;nan;100752.19;5054815;28;19923;-49
2021/09/12 06:02:20;;;;;;;;;;;;;;;24.78;nan;100743.16;5053769;28;19916;-49
2021/09/12 06:04:46;;;;;;;;;;;;;;;24.78;nan;100745.03;5053911;28;19997;-48
2021/09/12 06:07:11;;;;;;;;;;;;;;;24.78;nan;100748.59;5053851;28;19994;-48
2021/09/12 06:09:38;;;;;;;;;;;;;;;24.77;nan;100741.47;5053913;28;19913;-47
2021/09/12 06:12:04;;;;;;;;;;;;;;;24.75;nan;100743.47;5053990;28;19972;-45
2021/09/12 06:14:29;;;;;;;;;;;;;;;24.77;nan;100746.06;5053629;28;19916;-47
2021/09/12 06:16:54;;;;;;;;;;;;;;;24.75;nan;100746.19;5053643;28;19944;-46
2021/09/12 06:19:20;;;;;;;;;;;;;;;24.76;nan;100760.63;5035724;28;19920;-46
2021/09/12 06:21:45;;;;;;;;;;;;;;;24.75;nan;100753.50;5053488;28;19919;-49
2021/09/12 06:24:10;;;;;;;;;;;;;;;24.75;nan;100756.22;5035602;28;19947;-45
2021/09/12 06:26:35;;;;;;;;;;;;;;;24.76;nan;100758.78;5053100;28;20370;-48
2021/09/12 06:29:01;;;;;;;;;;;;;;;24.76;nan;100755.19;5053175;28;20328;-46
2021/09/12 06:31:26;;;;;;;;;;;;;;;24.75;nan;100754.34;5053496;28;19958;-46
2021/09/12 06:33:52;;;;;;;;;;;;;;;24.75;nan;100757.06;5053254;28;19917;-48
2021/09/12 06:36:18;;;;;;;;;;;;;;;24.73;nan;100750.94;5035522;28;19913;-44
2021/09/12 06:38:43;;;;;;;;;;;;;;;24.73;nan;100745.50;5053419;28;19913;-46
2021/09/12 06:41:09;;;;;;;;;;;;;;;24.74;nan;100751.78;5053221;28;19921;-46
2021/09/12 06:43:34;;;;;;;;;;;;;;;24.74;nan;100752.63;5035151;28;20379;-48
2021/09/12 06:45:59;;;;;;;;;;;;;;;24.75;nan;100756.22;5053234;28;20294;-46
2021/09/12 06:48:26;;;;;;;;;;;;;;;24.74;nan;100758.06;5053104;28;19913;-46
2021/09/12 06:50:53;;;;;;;;;;;;;;;24.74;nan;100752.63;5053081;28;19912;-46
2021/09/12 06:53:18;;;;;;;;;;;;;;;24.74;nan;100758.06;5052784;28;19917;-49
2021/09/12 06:55:44;;;;;;;;;;;;;;;24.74;nan;100751.78;5053487;28;19912;-47
2021/09/12 06:58:09;;;;;;;;;;;;;;;24.75;nan;100764.38;5052834;28;19959;-46
2021/09/12 07:00:35;;;;;;;;;;;;;;;24.75;nan;100770.66;5052850;28;19917;-48
2021/09/12 07:03:00;;;;;;;;;;;;;;;24.74;nan;100766.22;5052596;28;19920;-49
2021/09/12 07:05:25;;;;;;;;;;;;;;;24.75;nan;100778.81;5052646;28;20295;-48
2021/09/12 07:07:51;;;;;;;;;;;;;;;;;;5052637;28;19913;-46
2021/09/12 07:10:18;;;;;;;;;;;;;;;24.75;nan;100765.22;5052835;28;20011;-48
2021/09/12 07:12:44;;;;;;;;;;;;;;;24.76;nan;100777.81;5053342;28;19919;-48
2021/09/12 07:15:09;;;;;;;;;;;;;;;24.78;nan;100783.09;5052784;28;19912;-49
2021/09/12 07:17:35;;;;;;;;;;;;;;;24.78;nan;100781.22;5052677;28;20050;-46
2021/09/12 07:20:00;;;;;;;;;;;;;;;24.79;nan;100787.50;5052901;28;19924;-49
2021/09/12 07:22:25;;;;;;;;;;;;;;;24.79;nan;100782.94;5052475;28;19966;-49
2021/09/12 07:24:51;;;;;;;;;;;;;;;24.80;nan;100784.66;5052226;28;19921;-47
2021/09/12 07:27:23;;;;;;;;;;;;;;;24.83;nan;100777.19;5052182;28;19935;-48
2021/09/12 07:29:48;;;;;;;;;;;;;;;24.83;nan;100775.31;5052219;28;20421;-46
2021/09/12 07:32:14;;;;;;;;;;;;;;;24.84;nan;100782.50;5052317;28;19955;-46
2021/09/12 07:34:39;;;;;;;;;;;;;;;24.86;nan;100774.19;5052079;28;19940;-47
2021/09/12 07:37:04;;;;;;;;;;;;;;;24.88;nan;100783.91;5034264;28;19912;-49
2021/09/12 07:39:30;;;;;;;;;;;;;;;24.89;nan;100784.75;5052011;28;19921;-47
2021/09/12 07:41:55;;;;;;;;;;;;;;;24.91;nan;100775.41;5052323;28;19912;-49
2021/09/12 07:44:21;;;;;;;;;;;;;;;24.93;nan;100773.41;5051921;28;19913;-50
2021/09/12 07:46:46;;;;;;;;;;;;;;;24.95;nan;100775.97;5052026;28;19920;-48
2021/09/12 07:49:11;;;;;;;;;;;;;;;24.98;nan;100775.66;5051921;28;19958;-47
2021/09/12 07:51:37;;;;;;;;;;;;;;;25.00;nan;100768.22;5052083;28;20442;-50
2021/09/12 07:54:02;;;;;;;;;;;;;;;25.01;nan;100776.22;5033920;28;20414;-47
2021/09/12 07:56:27;;;;;;;;;;;;;;;25.04;nan;100775.06;5052045;28;19913;-49
2021/09/12 07:58:52;;;;;;;;;;;;;;;25.08;nan;100781.06;5034064;28;20309;-50
2021/09/12 08:01:18;;;;;;;;;;;;;;;25.10;nan;100773.63;5051950;28;20303;-47
2021/09/12 08:03:43;;;;;;;;;;;;;;;25.12;nan;100777.91;5051727;28;19959;-48
2021/09/12 08:06:09;;;;;;;;;;;;;;;25.15;nan;100771.31;5051872;28;19975;-49
2021/09/12 08:08:34;;;;;;;;;;;;;;;25.16;nan;100783.88;5051788;28;19913;-47
2021/09/12 08:10:59;;;;;;;;;;;;;;;25.19;nan;100789.88;5051836;28;19919;-46
2021/09/12 08:13:25;;;;;;;;;;;;;;;25.21;nan;100782.41;5033754;28;19912;-48
2021/09/12 08:15:50;;;;;;;;;;;;;;;25.22;nan;100785.97;5051753;28;19917;-49
2021/09/12 08:18:18;;;;;;;;;;;;;;;25.24;nan;100792.97;5051767;28;19920;-48
2021/09/12 08:20:43;;;;;;;;;;;;;;;25.25;nan;100786.53;5051498;28;19924;-46
2021/09/12 08:23:09;;;;;;;;;;;;;;;25.26;nan;100799.13;5051392;28;19921;-49
2021/09/12 08:25:34;;;;;;;;;;;;;;;25.28;nan;100785.38;5051809;28;19920;-45
2021/09/12 08:27:59;;;;;;;;;;;;;;;25.31;nan;100792.38;5051723;28;19912;-46
2021/09/12 08:30:25;;;;;;;;;;;;;;;25.31;nan;100793.22;5051534;28;19991;-48
2021/09/12 08:32:50;;;;;;;;;;;;;;;25.32;nan;100789.47;5033558;28;20004;-45
2021/09/12 08:35:15;;;;;;;;;;;;;;;25.33;nan;100798.50;5051414;28;20276;-46
2021/09/12 08:37:41;;;;;;;;;;;;;;;25.34;nan;100802.91;5051478;28;19920;-48
2021/09/12 08:40:06;;;;;;;;;;;;;;;25.35;nan;100794.63;5051632;28;19924;-46
2021/09/12 08:42:32;;;;;;;;;;;;;;;25.36;nan;100798.19;5051374;28;20422;-47
2021/09/12 08:44:58;;;;;;;;;;;;;;;25.36;nan;100796.31;5051234;28;20367;-46
2021/09/12 08:47:23;;;;;;;;;;;;;;;25.38;nan;100797.03;5033366;28;19935;-45
2021/09/12 08:49:48;;;;;;;;;;;;;;;25.39;nan;100803.34;5051268;28;19924;-47
2021/09/12 08:52:14;;;;;;;;;;;;;;;25.40;nan;100807.75;5055206;28;20045;-44
2021/09/12 08:54:40;;;;;;;;;;;;;;;25.40;nan;100807.75;5037294;28;19935;-47
2021/09/12 08:57:05;;;;;;;;;;;;;;;25.40;nan;100803.16;5055355;28;19998;-46
2021/09/12 08:59:32;;;;;;;;;;;;;;;25.42;nan;100800.31;5055189;28;20379;-46
2021/09/12 09:02:04;;;;;;;;;;;;;;;25.42;nan;100811.19;5055150;28;19920;-48
2021/09/12 09:04:31;;;;;;;;;;;;;;;25.43;nan;100802.84;5054855;28;19921;-47
2021/09/12 09:07:10;;;;;;;;;;;;;;;25.43;nan;100802.84;5055188;28;20353;-46
2021/09/12 09:09:46;;;;;;;;;;;;;;;25.45;nan;100806.28;5054978;28;19913;-47
2021/09/12 09:12:26;;;;;;;;;;;;;;;25.44;nan;100801.84;5054978;28;19923;-46
2021/09/12 09:15:01;;;;;;;;;;;;;;;25.44;nan;100801.84;5054834;28;20214;-49
2021/09/12 09:17:27;;;;;;;;;;;;;;;25.46;nan;100797.13;5036824;28;19912;-45
2021/09/12 09:19:55;;;;;;;;;;;;;;;25.47;nan;100797.97;5055013;28;19924;-48
2021/09/12 09:22:33;;;;;;;;;;;;;;;25.47;nan;100797.97;5054780;28;19920;-45
2021/09/12 09:24:59;;;;;;;;;;;;;;;25.46;nan;100797.13;5055020;28;19928;-46
2021/09/12 09:27:25;;;;;;;;;;;;;;;25.48;nan;100794.22;5054957;28;19919;-47
2021/09/12 09:29:50;;;;;;;;;;;;;;;;;;5054622;28;19913;-47
2021/09/12 09:32:15;;;;;;;;;;;;;;;25.49;nan;100790.50;5054754;28;19919;-46
2021/09/12 09:34:42;;;;;;;;;;;;;;;25.50;nan;100792.22;5036720;28;20295;-46
2021/09/12 09:37:10;;;;;;;;;;;;;;;25.48;nan;100810.53;5054667;28;20351;-43
2021/09/12 09:39:40;;;;;;;;;;;;;;;25.51;nan;100804.81;5054342;28;19917;-46
2021/09/12 09:42:06;;;;;;;;;;;;;;;25.52;nan;100795.63;5054379;28;19974;-46
2021/09/12 09:44:31;;;;;;;;;;;;;;;25.51;nan;100799.34;5036273;28;20299;-45
2021/09/12 09:47:07;;;;;;;;;;;;;;;25.53;nan;100808.22;5054378;28;19952;-45
2021/09/12 09:49:36;;;;;;;;;;;;;;;25.53;nan;100809.09;5054758;28;19913;-45
2021/09/12 09:52:02;;;;;;;;;;;;;;;25.53;nan;100805.50;5054475;28;19995;-46
2021/09/12 09:54:29;;;;;;;;;;;;;;;25.54;nan;100793.59;5054372;28;20418;-45
2021/09/12 09:56:55;;;;;;;;;;;;;;;25.55;nan;100799.91;5054245;28;20379;-45
2021/09/12 09:59:22;;;;;;;;;;;;;;;25.54;nan;100796.31;5054109;28;20086;-45
2021/09/12 10:01:51;;;;;;;;;;;;;;;25.56;nan;100796.16;5052923;28;19958;-46
2021/09/12 10:04:21;;;;;;;;;;;;;;;25.56;nan;100797.00;5054649;28;19973;-45
2021/09/12 10:06:47;;;;;;;;;;;;;;;25.57;nan;100797.91;5036155;28;19966;-46
2021/09/12 10:09:13;;;;;;;;;;;;;;;25.57;nan;100793.31;5053986;28;19962;-45
2021/09/12 10:11:44;;;;;;;;;;;;;;;25.57;nan;100793.31;5036018;28;19919;-44
2021/09/12 10:14:10;;;;;;;;;;;;;;;;;;5053993;28;19916;-45
2021/09/12 10:16:36;;;;;;;;;;;;;;;25.58;nan;100786.84;5053924;28;20303;-45
2021/09/12 10:19:01;;;;;;;;;;;;;;;25.59;nan;100796.69;5053889;28;20416;-44
2021/09/12 10:21:28;;;;;;;;;;;;;;;25.58;nan;100784.13;5053661;28;19925;-46
2021/09/12 10:24:00;;;;;;;;;;;;;;;25.61;nan;100791.13;5053406;28;19952;-45
2021/09/12 10:26:27;;;;;;;;;;;;;;;25.62;nan;100782.78;5053678;28;20291;-47
2021/09/12 10:28:52;;;;;;;;;;;;;;;25.61;nan;100772.91;5053594;28;20365;-46
2021/09/12 10:31:23;;;;;;;;;;;;;;;25.61;nan;100767.47;5053498;28;20008;-48
2021/09/12 10:34:07;;;;;;;;;;;;;;;25.62;nan;100779.22;5053525;28;20011;-46
2021/09/12 10:36:33;;;;;;;;;;;;;;;25.64;nan;100766.28;5053450;28;19917;-46
2021/09/12 10:39:18;;;;;;;;;;;;;;;25.64;nan;100772.59;5053540;28;19919;-45
2021/09/12 10:42:03;;;;;;;;;;;;;;;25.64;nan;100767.16;5053207;28;19995;-45
2021/09/12 10:44:29;;;;;;;;;;;;;;;25.64;nan;100761.72;5053040;28;20414;-45
2021/09/12 10:47:04;;;;;;;;;;;;;;;25.65;nan;100763.41;5053003;28;19913;-43
2021/09/12 10:49:30;;;;;;;;;;;;;;;25.65;nan;100757.97;5053196;28;20302;-45
2021/09/12 10:51:56;;;;;;;;;;;;;;;25.65;nan;100747.09;5053035;28;19944;-45
2021/09/12 10:54:21;;;;;;;;;;;;;;;25.66;nan;100750.66;5053229;28;20590;-46
2021/09/12 10:57:02;;;;;;;;;;;;;;;25.67;nan;100752.38;5053055;28;20107;-46
2021/09/12 10:59:27;;;;;;;;;;;;;;;25.67;nan;100752.38;5053034;28;19956;-45
2021/09/12 11:01:55;;;;;;;;;;;;;;;25.67;nan;100750.50;5053312;28;19952;-47
2021/09/12 11:04:27;;;;;;;;;;;;;;;25.68;nan;100740.44;5052917;28;19913;-43
2021/09/12 11:06:57;;;;;;;;;;;;;;;25.68;nan;100738.59;5053135;28;19955;-44
2021/09/12 11:09:23;;;;;;;;;;;;;;;25.68;nan;100741.34;5052874;28;19917;-45
2021/09/12 11:11:53;;;;;;;;;;;;;;;25.68;nan;100725.00;5052630;28;19952;-46
2021/09/12 11:14:19;;;;;;;;;;;;;;;25.68;nan;100727.72;5034600;28;19916;-45
2021/09/12 11:16:51;;;;;;;;;;;;;;;25.69;nan;100731.28;5053047;28;19912;-44
2021/09/12 11:19:17;;;;;;;;;;;;;;;25.69;nan;100732.16;5034711;28;20372;-48
2021/09/12 11:21:42;;;;;;;;;;;;;;;25.70;nan;100724.81;5052594;28;19922;-44
2021/09/12 11:24:15;;;;;;;;;;;;;;;25.69;nan;100721.25;5052785;28;19928;-49
2021/09/12 11:26:46;;;;;;;;;;;;;;;25.69;nan;100715.81;5052707;28;19913;-47
2021/09/12 11:29:14;;;;;;;;;;;;;;;25.70;nan;100709.34;5035789;28;19981;-45
2021/09/12 11:31:40;;;;;;;;;;;;;;;25.70;nan;100706.63;5052411;28;19920;-46
2021/09/12 11:34:05;;;;;;;;;;;;;;;25.70;nan;100706.63;5034477;28;20291;-46
2021/09/12 11:36:41;;;;;;;;;;;;;;;25.71;nan;100710.19;5052900;28;19913;-44
2021/09/12 11:39:06;;;;;;;;;;;;;;;25.71;nan;100705.59;5052304;28;19932;-47
2021/09/12 11:41:31;;;;;;;;;;;;;;;25.72;nan;100704.59;5052245;28;19924;-45
2021/09/12 11:43:57;;;;;;;;;;;;;;;25.71;nan;100694.72;5053298;28;20007;-45
2021/09/12 11:46:23;;;;;;;;;;;;;;;25.72;nan;100699.16;5052196;28;19913;-45
2021/09/12 11:48:52;;;;;;;;;;;;;;;25.72;nan;100690.16;5052215;28;20318;-46
2021/09/12 11:51:43;;;;;;;;;;;;;;;25.73;nan;100695.41;5052125;28;20398;-47
2021/09/12 11:54:22;;;;;;;;;;;;;;;25.72;nan;100691.00;5048056;28;19978;-47
2021/09/12 11:57:01;;;;;;;;;;;;;;;25.73;nan;100692.69;5052208;28;19913;-45
2021/09/12 11:59:28;;;;;;;;;;;;;;;25.73;nan;100681.81;5051801;28;20354;-50
2021/09/12 12:01:54;;;;;;;;;;;;;;;25.73;nan;100679.09;5051910;28;19999;-47
2021/09/12 12:04:20;;;;;;;;;;;;;;;25.74;nan;100679.94;5051712;28;19913;-45
2021/09/12 12:06:46;;;;;;;;;;;;;;;25.74;nan;100680.78;5051968;28;19913;-46
2021/09/12 12:09:17;;;;;;;;;;;;;;;25.75;nan;100689.78;5052405;28;19924;-47
2021/09/12 12:11:47;;;;;;;;;;;;;;;25.75;nan;100681.63;5051758;28;20325;-49
2021/09/12 12:14:25;;;;;;;;;;;;;;;25.73;nan;100679.09;5051593;28;19924;-47
2021/09/12 12:16:50;;;;;;;;;;;;;;;;;;5051960;28;20350;-47
2021/09/12 12:19:16;;;;;;;;;;;;;;;25.76;nan;100659.72;5051715;28;19939;-48
2021/09/12 12:21:46;;;;;;;;;;;;;;;25.76;nan;100651.53;5034644;28;19920;-45
2021/09/12 12:24:16;;;;;;;;;;;;;;;25.76;nan;100656.97;5051503;28;19929;-45
2021/09/12 12:26:44;;;;;;;;;;;;;;;25.77;nan;100655.97;5033049;28;19913;-44
2021/09/12 12:29:10;;;;;;;;;;;;;;;25.78;nan;100654.13;5051602;28;20007;-47
2021/09/12 12:31:36;;;;;;;;;;;;;;;25.75;nan;100657.97;5051487;28;19952;-47
2021/09/12 12:34:01;;;;;;;;;;;;;;;25.77;nan;100658.69;5051408;28;19991;-45
2021/09/12 12:36:26;;;;;;;;;;;;;;;25.80;nan;100651.25;5051642;28;20459;-46
2021/09/12 12:38:52;;;;;;;;;;;;;;;25.80;nan;100645.81;5051495;28;19913;-45
2021/09/12 12:41:19;;;;;;;;;;;;;;;25.80;nan;100645.81;5051287;28;19971;-48
2021/09/12 12:43:45;;;;;;;;;;;;;;;25.80;nan;100645.81;5033986;28;20568;-44
2021/09/12 12:46:10;;;;;;;;;;;;;;;25.80;nan;100634.91;5051569;28;19985;-45
2021/09/12 12:48:39;;;;;;;;;;;;;;;25.80;nan;100635.78;5051523;28;19975;-47
2021/09/12 12:51:15;;;;;;;;;;;;;;;25.82;nan;100632.88;5051493;28;19920;-46
2021/09/12 12:53:45;;;;;;;;;;;;;;;25.82;nan;100627.44;5051243;28;20298;-45
2021/09/12 12:56:15;;;;;;;;;;;;;;;25.81;nan;100623.00;5051368;28;19952;-46
2021/09/12 12:58:40;;;;;;;;;;;;;;;25.82;nan;100621.97;5051498;28;20007;-46